OLE weather

Cattaraugus County-Olean Airport
Olean, New York, United States

Public forecast

Using degrees Fahrenheit for public forecast. Weather courtesy of forecast.io.

Current aviation weather report (METAR) for Cattaraugus County-Olean Airport

Retrieved 2020/01/25 07:35 UTC (0 seconds ago):

KOLE 250735Z AUTO 15009G16KT 10SM -RA BKN037 OVC047 01/01 A2995 RMK AO2

Closest aviation forecast (TAF) to Cattaraugus County-Olean Airport

Closest forecast is Bradford Regional Airport, 28.9 nm (53.5 km) SSW. Retrieved 2020/01/25 06:39 UTC (46 minutes ago):

TAF KBFD 250537Z 2506/2606 14008KT 5SM -RA OVC015 WS020/16050KT FM250900 13008KT 4SM RA OVC007 WS020/16050KT FM251200 16005KT 3SM -RA OVC007 FM251500 23004KT 5SM -RA OVC015 FM252000 26007KT 6SM -SHSN OVC015